createdAt,value
2022-07-29T00:01:55.410Z,22.11
2022-07-29T00:04:29.015Z,22.03
2022-07-29T00:06:58.492Z,22.06
2022-07-29T00:09:29.070Z,22.05
2022-07-29T00:12:02.398Z,22.04
2022-07-29T00:14:32.578Z,22.09
2022-07-29T00:17:01.682Z,22.12
2022-07-29T00:19:30.751Z,22.09
2022-07-29T00:22:03.490Z,22.03
2022-07-29T00:24:37.019Z,22.08
2022-07-29T00:27:06.392Z,21.96
2022-07-29T00:29:38.624Z,22.02
2022-07-29T00:32:11.704Z,22.04
2022-07-29T00:34:57.686Z,22.04
2022-07-29T00:37:27.346Z,22.06
2022-07-29T00:40:01.433Z,22.04
2022-07-29T00:42:33.043Z,22.07
2022-07-29T00:45:06.039Z,22.03
2022-07-29T00:47:35.241Z,22.04
2022-07-29T00:50:09.447Z,22.05
2022-07-29T00:52:42.390Z,22.01
2022-07-29T00:55:15.810Z,22.01
2022-07-29T00:57:46.538Z,22.01
2022-07-29T01:00:19.703Z,21.98
2022-07-29T01:02:50.724Z,21.99
2022-07-29T01:05:21.779Z,22.03
2022-07-29T01:07:54.988Z,21.94
2022-07-29T01:10:29.414Z,22.00
2022-07-29T01:13:03.163Z,22.01
2022-07-29T01:15:49.233Z,21.95
2022-07-29T01:18:28.088Z,21.92
2022-07-29T01:21:57.606Z,21.93
2022-07-29T01:24:43.416Z,21.89
2022-07-29T01:27:37.355Z,21.95
2022-07-29T01:30:10.198Z,21.93
2022-07-29T01:32:43.333Z,21.90
2022-07-29T01:35:21.600Z,21.86
2022-07-29T01:38:00.022Z,21.92
2022-07-29T01:40:35.759Z,21.91
2022-07-29T01:43:12.759Z,21.87
2022-07-29T01:45:51.145Z,21.69
2022-07-29T01:48:31.934Z,21.58
2022-07-29T01:51:08.875Z,21.63
2022-07-29T01:53:46.565Z,21.74
2022-07-29T01:56:17.714Z,21.70
2022-07-29T01:58:48.064Z,21.73
2022-07-29T02:01:21.884Z,21.70
2022-07-29T02:03:51.854Z,21.56
2022-07-29T02:06:25.143Z,21.56
2022-07-29T02:08:56.548Z,21.60
2022-07-29T02:11:25.865Z,21.62
2022-07-29T02:13:59.039Z,21.54
2022-07-29T02:16:33.479Z,21.55
2022-07-29T02:19:05.769Z,21.51
2022-07-29T02:21:38.084Z,21.51
2022-07-29T02:24:08.694Z,21.52
2022-07-29T02:26:39.329Z,21.50
2022-07-29T02:29:10.851Z,21.42
2022-07-29T02:31:44.591Z,21.22
2022-07-29T02:34:15.437Z,21.30
2022-07-29T02:36:51.462Z,21.32
2022-07-29T02:39:21.580Z,21.37
2022-07-29T02:41:55.481Z,21.41
2022-07-29T02:44:31.364Z,21.37
2022-07-29T02:47:14.252Z,21.24
2022-07-29T02:49:52.422Z,21.09
2022-07-29T02:52:27.304Z,21.08
2022-07-29T02:55:00.905Z,21.08
2022-07-29T02:57:35.883Z,21.07
2022-07-29T03:00:26.403Z,20.97
2022-07-29T03:03:00.864Z,21.17
2022-07-29T03:05:32.371Z,21.26
2022-07-29T03:08:07.817Z,21.21
2022-07-29T03:10:40.295Z,21.08
2022-07-29T03:13:13.489Z,21.04
2022-07-29T03:15:47.747Z,20.91
2022-07-29T03:18:18.859Z,20.96
2022-07-29T03:20:48.661Z,20.92
2022-07-29T03:23:23.693Z,20.73
2022-07-29T03:25:53.292Z,20.83
2022-07-29T03:28:24.814Z,20.90
2022-07-29T03:31:00.696Z,21.06
2022-07-29T03:33:33.327Z,20.89
2022-07-29T03:36:03.697Z,21.07
2022-07-29T03:38:37.334Z,21.01
2022-07-29T03:41:12.430Z,20.96
2022-07-29T03:43:49.879Z,20.97
2022-07-29T03:46:20.511Z,20.78
2022-07-29T03:48:57.620Z,20.97
2022-07-29T03:51:33.695Z,20.95
2022-07-29T03:54:09.842Z,21.01
2022-07-29T03:56:43.980Z,20.61
2022-07-29T03:59:13.986Z,20.77
2022-07-29T04:01:45.142Z,20.91
2022-07-29T04:04:16.867Z,20.95
2022-07-29T04:06:48.937Z,20.75
2022-07-29T04:09:19.049Z,20.84
2022-07-29T04:12:01.930Z,20.59
2022-07-29T04:14:33.774Z,20.77
2022-07-29T04:17:04.314Z,20.79
2022-07-29T04:19:35.356Z,20.87
2022-07-29T04:22:05.199Z,20.73
2022-07-29T04:24:35.143Z,20.78
2022-07-29T04:27:04.529Z,20.63
2022-07-29T04:29:33.990Z,20.64
2022-07-29T04:32:03.407Z,20.77
2022-07-29T04:34:34.575Z,20.86
2022-07-29T04:37:03.782Z,20.84
2022-07-29T04:39:33.924Z,20.87
2022-07-29T04:42:03.052Z,20.92
2022-07-29T04:44:32.610Z,20.95
2022-07-29T04:47:09.907Z,20.98
2022-07-29T04:49:41.934Z,20.99
2022-07-29T04:52:11.251Z,21.08
2022-07-29T04:54:40.368Z,21.14
2022-07-29T04:57:09.773Z,21.03
2022-07-29T04:59:39.047Z,21.11
2022-07-29T05:02:08.115Z,21.07
2022-07-29T05:04:38.181Z,21.04
2022-07-29T05:07:09.297Z,21.22
2022-07-29T05:09:38.561Z,21.19
2022-07-29T05:12:09.301Z,21.24
2022-07-29T05:14:38.785Z,21.17
2022-07-29T05:17:08.042Z,21.12
2022-07-29T05:19:39.432Z,21.02
2022-07-29T05:22:10.746Z,21.20
2022-07-29T05:24:39.681Z,21.29
2022-07-29T05:27:08.862Z,21.35
2022-07-29T05:29:43.328Z,21.22
2022-07-29T05:32:14.865Z,21.23
2022-07-29T05:34:50.353Z,21.24
2022-07-29T05:37:22.871Z,21.32
2022-07-29T05:39:56.505Z,21.33
2022-07-29T05:42:27.038Z,21.38
2022-07-29T05:44:58.687Z,21.43
2022-07-29T05:47:28.074Z,21.58
2022-07-29T05:49:57.728Z,21.52
2022-07-29T05:52:28.613Z,21.47
2022-07-29T05:54:58.907Z,21.56
2022-07-29T05:57:28.062Z,21.58
2022-07-29T05:59:57.545Z,21.66
2022-07-29T06:02:26.655Z,21.72
2022-07-29T06:04:55.610Z,21.73
2022-07-29T06:07:25.010Z,21.63
2022-07-29T06:09:55.506Z,21.71
2022-07-29T06:12:25.048Z,21.73
2022-07-29T06:14:57.843Z,21.78
2022-07-29T06:17:27.660Z,21.81
2022-07-29T06:19:56.888Z,21.85
2022-07-29T06:22:26.187Z,21.90
2022-07-29T06:24:59.562Z,21.87
2022-07-29T06:27:28.829Z,21.82
2022-07-29T06:29:59.041Z,21.88
2022-07-29T06:32:32.418Z,21.94
2022-07-29T06:35:24.490Z,21.95
2022-07-29T06:37:50.921Z,21.94
2022-07-29T06:40:42.674Z,22.05
2022-07-29T06:43:12.292Z,22.07
2022-07-29T06:45:42.601Z,22.21
2022-07-29T06:48:12.474Z,22.21
2022-07-29T06:50:42.035Z,22.19
2022-07-29T06:53:11.495Z,22.24
2022-07-29T06:55:42.294Z,22.27
2022-07-29T06:58:12.082Z,22.31
2022-07-29T07:00:41.611Z,22.42
2022-07-29T07:03:11.308Z,22.53
2022-07-29T07:05:40.609Z,22.63
2022-07-29T07:08:10.028Z,22.70
2022-07-29T07:10:39.469Z,22.73
2022-07-29T07:13:10.958Z,22.76
2022-07-29T07:15:40.641Z,22.74
2022-07-29T07:18:10.268Z,22.92
2022-07-29T07:20:39.814Z,23.18
2022-07-29T07:23:08.910Z,23.44
2022-07-29T07:25:37.978Z,23.43
2022-07-29T07:28:09.595Z,23.39
2022-07-29T07:30:39.064Z,23.51
2022-07-29T07:33:08.223Z,23.50
2022-07-29T07:35:38.250Z,23.43
2022-07-29T07:38:09.024Z,23.45
2022-07-29T07:40:38.262Z,23.55
2022-07-29T07:43:07.692Z,23.61
2022-07-29T07:45:38.876Z,23.60
2022-07-29T07:48:11.314Z,23.67
2022-07-29T07:50:40.591Z,24.14
2022-07-29T07:53:11.142Z,24.03
2022-07-29T07:58:33.074Z,23.94
2022-07-29T08:01:07.344Z,24.04
2022-07-29T08:03:40.649Z,24.12
2022-07-29T08:06:10.331Z,24.24
2022-07-29T08:08:42.963Z,24.29
2022-07-29T08:11:13.009Z,24.44
2022-07-29T08:13:42.488Z,24.58
2022-07-29T08:16:16.683Z,24.62
2022-07-29T08:18:47.808Z,24.86
2022-07-29T08:21:18.253Z,24.78
2022-07-29T08:23:58.590Z,24.81
2022-07-29T08:26:30.218Z,24.81
2022-07-29T08:29:00.479Z,24.82
2022-07-29T08:31:31.613Z,25.13
2022-07-29T08:34:01.649Z,25.32
2022-07-29T08:36:30.897Z,25.52
2022-07-29T08:39:00.877Z,25.28
2022-07-29T08:41:31.034Z,25.40
2022-07-29T08:43:59.908Z,25.60
2022-07-29T08:46:30.230Z,25.55
2022-07-29T08:49:00.384Z,25.61
2022-07-29T08:51:30.153Z,25.51
2022-07-29T08:54:00.129Z,25.56
2022-07-29T08:56:29.581Z,25.74
2022-07-29T08:59:01.070Z,25.87
2022-07-29T09:01:45.840Z,25.89
2022-07-29T09:04:37.792Z,26.14
2022-07-29T09:07:43.171Z,26.06
2022-07-29T09:10:53.358Z,26.21
2022-07-29T09:13:22.852Z,26.09
2022-07-29T09:15:54.903Z,26.05
2022-07-29T09:18:42.922Z,25.93
2022-07-29T09:21:31.490Z,25.82
2022-07-29T09:24:08.069Z,25.82
2022-07-29T09:26:42.046Z,25.98
2022-07-29T09:29:15.108Z,25.87
2022-07-29T09:31:49.189Z,25.68
2022-07-29T09:34:31.000Z,25.91
2022-07-29T09:37:12.701Z,26.03
2022-07-29T09:39:47.283Z,26.05
2022-07-29T09:42:30.561Z,26.09
2022-07-29T09:44:59.831Z,26.05
2022-07-29T09:47:48.011Z,26.06
2022-07-29T09:50:20.649Z,26.17
2022-07-29T09:52:52.810Z,26.27
2022-07-29T09:55:22.490Z,26.32
2022-07-29T09:57:51.664Z,26.47
2022-07-29T10:00:24.195Z,26.42
2022-07-29T10:02:53.905Z,26.35
2022-07-29T10:05:26.905Z,26.34
2022-07-29T10:08:06.309Z,26.55
2022-07-29T10:10:38.905Z,26.48
2022-07-29T10:13:15.686Z,26.34
2022-07-29T10:15:47.572Z,26.66
2022-07-29T10:18:26.384Z,26.23
2022-07-29T10:20:59.674Z,26.28
2022-07-29T10:23:29.803Z,26.51
2022-07-29T10:26:16.685Z,26.23
2022-07-29T10:28:46.254Z,26.23
2022-07-29T10:31:26.073Z,26.09
2022-07-29T10:34:08.168Z,26.05
2022-07-29T10:36:56.286Z,25.94
2022-07-29T10:39:44.478Z,26.41
2022-07-29T10:42:33.408Z,26.09
2022-07-29T10:45:06.800Z,26.09
2022-07-29T10:47:36.437Z,26.05
2022-07-29T10:50:17.138Z,26.06
2022-07-29T10:53:09.051Z,26.12
2022-07-29T10:55:59.299Z,26.24
2022-07-29T10:58:29.517Z,26.29
2022-07-29T11:00:59.494Z,26.50
2022-07-29T11:03:50.358Z,26.41
2022-07-29T11:06:26.740Z,26.77
2022-07-29T11:09:25.836Z,26.81
2022-07-29T11:12:52.282Z,26.81
2022-07-29T11:15:25.007Z,26.90
2022-07-29T11:18:15.206Z,27.08
2022-07-29T11:20:50.154Z,27.40
2022-07-29T11:23:27.598Z,27.17
2022-07-29T11:26:24.771Z,27.51
2022-07-29T11:29:05.766Z,27.40
2022-07-29T11:34:30.379Z,27.54
2022-07-29T11:37:27.694Z,27.46
2022-07-29T11:40:21.475Z,27.67
2022-07-29T11:42:55.777Z,27.99
2022-07-29T11:45:43.489Z,27.82
2022-07-29T11:48:28.352Z,27.66
2022-07-29T11:51:01.685Z,27.73
2022-07-29T11:53:33.307Z,27.42
2022-07-29T11:56:50.807Z,27.31
2022-07-29T12:00:01.619Z,27.35
2022-07-29T12:02:48.499Z,27.42
2022-07-29T12:05:22.303Z,27.62
2022-07-29T12:08:31.641Z,27.54
2022-07-29T12:11:05.189Z,27.59
2022-07-29T12:13:50.646Z,28.12
2022-07-29T12:16:29.638Z,27.70
2022-07-29T12:19:03.817Z,27.66
2022-07-29T12:25:36.978Z,27.43
2022-07-29T12:28:09.485Z,27.35
2022-07-29T12:30:46.361Z,27.32
2022-07-29T12:33:24.720Z,27.28
2022-07-29T12:36:17.428Z,27.38
2022-07-29T12:39:14.113Z,27.34
2022-07-29T12:41:53.823Z,27.35
2022-07-29T12:44:51.522Z,27.42
2022-07-29T12:47:24.177Z,27.43
2022-07-29T12:50:12.342Z,27.44
2022-07-29T12:52:41.527Z,27.48
2022-07-29T12:55:11.751Z,27.70
2022-07-29T12:57:49.133Z,27.79
2022-07-29T13:00:19.124Z,27.83
2022-07-29T13:02:58.255Z,28.47
2022-07-29T13:05:49.202Z,28.14
2022-07-29T13:08:22.776Z,28.10
2022-07-29T13:10:52.460Z,28.19
2022-07-29T13:13:21.406Z,27.97
2022-07-29T13:16:09.645Z,28.02
2022-07-29T13:18:39.012Z,27.89
2022-07-29T13:21:16.683Z,27.91
2022-07-29T13:23:52.631Z,27.87
2022-07-29T13:26:21.980Z,27.84
2022-07-29T13:28:55.964Z,27.90
2022-07-29T13:31:32.124Z,27.81
2022-07-29T13:34:01.244Z,27.75
2022-07-29T13:36:32.581Z,27.84
2022-07-29T13:39:05.957Z,27.88
2022-07-29T13:41:39.855Z,28.02
2022-07-29T13:45:04.137Z,28.16
2022-07-29T13:47:58.978Z,28.25
2022-07-29T13:50:31.101Z,28.19
2022-07-29T13:54:09.004Z,28.15
2022-07-29T13:57:34.235Z,28.37
2022-07-29T14:01:12.916Z,28.68
2022-07-29T14:04:21.076Z,28.56
2022-07-29T14:06:58.583Z,28.50
2022-07-29T14:09:41.385Z,28.36
2022-07-29T14:12:33.288Z,28.30
2022-07-29T14:15:02.927Z,28.31
2022-07-29T14:17:37.803Z,28.50
2022-07-29T14:23:34.994Z,29.52
2022-07-29T14:26:24.713Z,29.87
2022-07-29T14:29:08.951Z,30.03
2022-07-29T14:31:39.651Z,30.52
2022-07-29T14:34:15.342Z,30.27
2022-07-29T14:36:44.728Z,30.35
2022-07-29T14:39:17.891Z,30.09
2022-07-29T14:41:51.350Z,30.01
2022-07-29T14:44:20.484Z,30.07
2022-07-29T14:46:50.678Z,30.16
2022-07-29T14:49:23.907Z,30.07
2022-07-29T14:51:55.640Z,29.97
2022-07-29T14:54:24.859Z,29.99
2022-07-29T14:56:58.519Z,29.94
2022-07-29T14:59:39.217Z,29.49
2022-07-29T15:02:45.793Z,29.58
2022-07-29T15:05:17.855Z,29.65
2022-07-29T15:07:55.756Z,29.85
2022-07-29T15:10:52.629Z,29.82
2022-07-29T15:13:31.218Z,29.91
2022-07-29T15:16:00.560Z,29.74
2022-07-29T15:18:29.862Z,29.81
2022-07-29T15:21:05.287Z,29.78
2022-07-29T15:23:34.576Z,29.56
2022-07-29T15:26:07.139Z,29.41
2022-07-29T15:28:39.773Z,29.85
2022-07-29T15:31:10.344Z,29.72
2022-07-29T15:33:39.584Z,29.51
2022-07-29T15:36:09.085Z,29.62
2022-07-29T15:38:41.822Z,29.44
2022-07-29T15:41:18.758Z,29.36
2022-07-29T15:43:54.195Z,29.63
2022-07-29T15:46:43.594Z,29.42
2022-07-29T15:49:14.174Z,29.51
2022-07-29T15:51:54.134Z,29.53
2022-07-29T15:54:26.534Z,29.68
2022-07-29T15:56:56.657Z,29.58
2022-07-29T15:59:30.809Z,29.45
2022-07-29T16:02:05.057Z,29.29
2022-07-29T16:04:34.484Z,29.12
2022-07-29T16:07:11.722Z,29.15
2022-07-29T16:09:57.862Z,29.13
2022-07-29T16:12:38.410Z,29.26
2022-07-29T16:18:19.014Z,29.04
2022-07-29T16:24:03.077Z,28.87
2022-07-29T16:26:32.743Z,28.81
2022-07-29T16:32:15.375Z,28.68
2022-07-29T16:34:54.333Z,28.80
2022-07-29T16:37:25.934Z,28.64
2022-07-29T16:40:28.005Z,28.46
2022-07-29T16:43:48.840Z,28.47
2022-07-29T16:46:35.603Z,28.48
2022-07-29T16:49:07.669Z,28.41
2022-07-29T16:51:36.809Z,28.37
2022-07-29T16:54:06.558Z,28.42
2022-07-29T16:56:36.142Z,28.28
2022-07-29T16:59:08.809Z,28.15
2022-07-29T17:01:42.482Z,28.04
2022-07-29T17:04:19.598Z,27.98
2022-07-29T17:06:50.841Z,28.04
2022-07-29T17:09:23.092Z,27.97
2022-07-29T17:12:01.193Z,27.84
2022-07-29T17:14:53.630Z,27.80
2022-07-29T17:17:55.439Z,27.74
2022-07-29T17:20:28.054Z,27.60
2022-07-29T17:25:48.451Z,27.50
2022-07-29T17:28:39.015Z,27.40
2022-07-29T17:31:10.802Z,27.26
2022-07-29T17:33:41.821Z,27.30
2022-07-29T17:36:28.015Z,27.30
2022-07-29T17:39:06.016Z,27.23
2022-07-29T17:41:37.672Z,27.17
2022-07-29T17:44:16.782Z,27.09
2022-07-29T17:47:16.691Z,26.98
2022-07-29T17:49:54.857Z,26.90
2022-07-29T17:52:30.670Z,26.76
2022-07-29T17:55:02.047Z,26.76
2022-07-29T17:58:09.649Z,26.72
2022-07-29T18:01:12.985Z,26.71
2022-07-29T18:04:32.509Z,26.63
2022-07-29T18:07:16.186Z,26.55
2022-07-29T18:10:06.389Z,26.48
2022-07-29T18:12:59.646Z,26.39
2022-07-29T18:16:00.190Z,26.34
2022-07-29T18:18:35.679Z,26.24
2022-07-29T18:21:10.775Z,26.14
2022-07-29T18:23:59.072Z,26.02
2022-07-29T18:26:34.797Z,25.93
2022-07-29T18:29:04.398Z,25.87
2022-07-29T18:31:33.968Z,25.81
2022-07-29T18:34:03.016Z,25.72
2022-07-29T18:36:44.041Z,25.59
2022-07-29T18:39:20.873Z,25.60
2022-07-29T18:41:56.403Z,25.55
2022-07-29T18:44:30.238Z,25.58
2022-07-29T18:46:59.276Z,25.53
2022-07-29T18:49:29.576Z,25.55
2022-07-29T18:52:05.204Z,25.48
2022-07-29T18:54:34.733Z,25.40
2022-07-29T18:57:53.746Z,25.27
2022-07-29T19:00:04.230Z,25.27
2022-07-29T19:02:47.891Z,25.18
2022-07-29T19:05:20.037Z,25.14
2022-07-29T19:07:48.850Z,25.15
2022-07-29T19:10:20.801Z,25.10
2022-07-29T19:12:51.231Z,25.17
2022-07-29T19:15:20.702Z,25.09
2022-07-29T19:17:50.550Z,25.05
2022-07-29T19:20:19.989Z,25.05
2022-07-29T19:22:49.666Z,25.03
2022-07-29T19:25:19.779Z,24.97
2022-07-29T19:27:50.416Z,24.92
2022-07-29T19:30:21.147Z,24.93
2022-07-29T19:32:50.345Z,24.89
2022-07-29T19:35:28.214Z,24.84
2022-07-29T19:38:12.790Z,24.84
2022-07-29T19:40:44.582Z,24.82
2022-07-29T19:43:50.753Z,24.76
2022-07-29T19:50:04.148Z,24.69
2022-07-29T19:52:48.826Z,24.74
2022-07-29T19:55:20.196Z,24.72
2022-07-29T19:57:52.234Z,24.71
2022-07-29T20:00:34.343Z,24.71
2022-07-29T20:03:11.221Z,24.73
2022-07-29T20:05:47.684Z,25.16
2022-07-29T20:08:22.616Z,25.55
2022-07-29T20:11:00.224Z,25.42
2022-07-29T20:13:31.449Z,25.21
2022-07-29T20:16:02.139Z,24.93
2022-07-29T20:18:37.117Z,25.11
2022-07-29T20:21:06.376Z,25.08
2022-07-29T20:23:37.410Z,25.18
2022-07-29T20:26:09.284Z,25.07
2022-07-29T20:28:43.519Z,24.84
2022-07-29T20:31:29.951Z,24.61
2022-07-29T20:33:59.593Z,24.17
2022-07-29T20:36:28.655Z,24.10
2022-07-29T20:39:00.116Z,24.07
2022-07-29T20:41:31.923Z,23.73
2022-07-29T20:44:08.090Z,23.45
2022-07-29T20:46:46.812Z,23.33
2022-07-29T20:49:16.258Z,23.41
2022-07-29T20:52:09.137Z,23.41
2022-07-29T20:54:41.464Z,23.20
2022-07-29T20:57:12.409Z,23.16
2022-07-29T20:59:45.779Z,23.10
2022-07-29T21:02:16.423Z,23.05
2022-07-29T21:04:50.867Z,23.00
2022-07-29T21:07:28.736Z,23.00
2022-07-29T21:09:57.789Z,22.94
2022-07-29T21:12:44.707Z,22.93
2022-07-29T21:15:17.098Z,22.83
2022-07-29T21:17:59.482Z,22.89
2022-07-29T21:20:34.077Z,22.82
2022-07-29T21:23:05.818Z,22.80
2022-07-29T21:25:36.213Z,22.80
2022-07-29T21:28:23.425Z,22.69
2022-07-29T21:30:52.734Z,22.67
2022-07-29T21:34:17.137Z,22.68
2022-07-29T21:39:48.432Z,22.66
2022-07-29T21:42:20.770Z,22.59
2022-07-29T21:45:02.337Z,22.52
2022-07-29T21:47:34.405Z,22.52
2022-07-29T21:50:11.201Z,22.81
2022-07-29T21:52:43.464Z,22.76
2022-07-29T21:55:36.397Z,22.79
2022-07-29T21:58:36.172Z,22.82
2022-07-29T22:01:08.118Z,22.42
2022-07-29T22:04:25.416Z,22.27
2022-07-29T22:07:56.113Z,22.28
2022-07-29T22:10:44.125Z,22.27
2022-07-29T22:13:32.800Z,22.23
2022-07-29T22:16:15.137Z,22.16
2022-07-29T22:18:56.198Z,22.20
2022-07-29T22:21:38.422Z,22.08
2022-07-29T22:24:23.237Z,21.99
2022-07-29T22:27:15.473Z,22.02
2022-07-29T22:29:49.157Z,21.96
2022-07-29T22:32:28.298Z,21.92
2022-07-29T22:35:07.991Z,21.91
2022-07-29T22:37:42.634Z,21.94
2022-07-29T22:40:45.125Z,21.88
2022-07-29T22:43:26.767Z,21.78
2022-07-29T22:45:55.910Z,21.82
2022-07-29T22:48:29.818Z,21.90
2022-07-29T22:51:07.378Z,21.83
2022-07-29T22:53:44.098Z,21.78
2022-07-29T22:56:17.769Z,21.77
2022-07-29T22:58:52.714Z,21.71
2022-07-29T23:01:35.792Z,21.68
2022-07-29T23:04:08.919Z,21.71
2022-07-29T23:06:43.331Z,21.62
2022-07-29T23:09:32.827Z,21.59
2022-07-29T23:12:09.938Z,21.64
2022-07-29T23:14:42.360Z,21.52
2022-07-29T23:17:13.240Z,21.60
2022-07-29T23:19:57.801Z,21.59
2022-07-29T23:22:27.042Z,21.51
2022-07-29T23:24:58.975Z,21.56
2022-07-29T23:27:32.670Z,21.52
2022-07-29T23:30:08.290Z,21.59
2022-07-29T23:32:37.702Z,21.54
2022-07-29T23:35:23.672Z,21.53
2022-07-29T23:37:53.212Z,21.54
2022-07-29T23:40:27.445Z,21.57
2022-07-29T23:42:59.197Z,21.58
2022-07-29T23:45:42.559Z,21.53
2022-07-29T23:48:14.650Z,21.55
2022-07-29T23:50:47.078Z,21.55
2022-07-29T23:53:17.736Z,21.51
2022-07-29T23:55:47.295Z,21.52
2022-07-29T23:58:19.990Z,21.48
